LEAB/ABC METAR and TAF weather

Enter ICAO airport designator
Station Type Date Time Source
LEAB METAR 2021/09/25 13:00 UTC NOAA

LEAB 251300Z VRB04KT 9999 FEW020TCU BKN030 23/16 Q1020 NOSIG


Station Type Date Time Source
LEAB Decoded METAR 2021/09/25 13:00 UTC NOAA

Albacete / Los Llanos, Spain (LEAB) 38-57N 001-51W 704M
Sep 25, 2021 - 09:00 AM EDT / 2021.09.25 1300 UTC
Wind: Variable at 5 MPH (4 KT):0
Visibility: greater than 7 mile(s):0
Sky conditions: mostly cloudy
Weather: Towering cumulus clouds observed
Temperature: 73 F (23 C)
Dew Point: 60 F (16 C)
Relative Humidity: 64%
Pressure (altimeter): 30.12 in. Hg (1020 hPa)
ob: LEAB 251300Z VRB04KT 9999 FEW020TCU BKN030 23/16 Q1020 NOSIG
cycle: 13

Station Type Date Time Source
LEAB TAF 2021/09/25 12:27 UTC NOAA

TAF LEAB 251100Z 2512/2612 VRB05KT 9999 BKN030 TX25/2515Z TN13/2606Z PROB40
TEMPO 2514/2520 27010KT SHRA TSRA SCT030CB

Example: see airport list